Flight Track Log - Related Links

Times and Time Zones

All times are in EDT time to prevent confusion due to time zone crossing. See the N321AR flight status page for this flight to view local times or setup timezone preferences in your user account.

Time Position Orientation Groundspeed Altitude Reporting Facility
EDT Latitude Longitude Course Direction KTS MPH feet Rate Location/Type
Fri 02:13:53 PM 27.5219 -99.4231 84° East 224 258 3,900  Level Houston Center
Fri 02:14:55 PM 27.5783 -99.3950 24° Northeast 222 255 6,700 2,468 Climbing Houston Center
Fri 02:15:57 PM 27.6353 -99.3703 21° North 219 252 9,000 2,323 Climbing Houston Center
Fri 02:16:59 PM 27.6972 -99.3425 22° Northeast 226 260 11,500 2,419 Climbing Houston Center
Fri 02:17:00 PM 28.2098 -99.1387 21° North  Level FlightAware Approximate
Fri 02:18:00 PM 28.3216 -99.0877 27° Northeast  Level FlightAware Approximate
Fri 02:18:01 PM 27.7789 -99.3072 21° North 244 281 14,000  Level Houston Center
Fri 02:19:04 PM 27.8536 -99.2700 24° Northeast 282 325 16,000 1,728 Climbing Houston Center
Fri 02:20:06 PM 27.9364 -99.2364 20° North 309 356 17,600 1,500 Climbing Houston Center
Fri 02:21:08 PM 28.0289 -99.2181 10° North 336 387 19,100 1,548 Climbing Houston Center
Fri 02:22:10 PM 28.1272 -99.2108 North 351 404 20,800 1,645 Climbing Houston Center
Fri 02:23:12 PM 28.2275 -99.2069 North 358 412 22,500 1,790 Climbing Houston Center
Fri 02:24:14 PM 28.3511 -99.1939 North 370 426 24,500 1,790 Climbing Houston Center
Fri 02:25:16 PM 28.4553 -99.1550 18° North 391 450 26,200 1,584 Climbing Houston Center
Fri 02:26:19 PM 28.5611 -99.1217 15° North 394 453 27,800 1,296 Climbing Houston Center
Fri 02:27:21 PM 28.6689 -99.0881 15° North 399 459 28,900 1,065 Climbing Houston Center
Fri 02:28:23 PM 28.7819 -99.0528 15° North 416 479 30,000 1,065 Climbing Houston Center
Fri 02:29:25 PM 28.8961 -99.0158 16° North 424 488 31,100 1,113 Climbing Houston Center
Fri 02:30:27 PM 29.0356 -98.9736 15° North 436 502 32,300 1,016 Climbing Houston Center
Fri 02:31:29 PM 29.1625 -98.9328 16° North 439 505 33,200 871 Climbing Houston Center
Fri 02:32:31 PM 29.2842 -98.8944 15° North 450 518 34,100 871 Climbing Houston Center
Fri 02:33:33 PM 29.4044 -98.8553 16° North 449 517 35,000 871 Climbing Houston Center
Fri 02:34:35 PM 29.5350 -98.8133 16° North 449 517 35,900 864 Climbing Houston Center
Fri 02:35:38 PM 29.6556 -98.7753 15° North 448 516 36,800 864 Climbing Houston Center
Fri 02:36:40 PM 29.7844 -98.7331 16° North 444 511 37,700 871 Climbing Houston Center
Fri 02:37:42 PM 29.9017 -98.6958 15° North 436 502 38,600 629 Climbing Houston Center
Fri 02:38:44 PM 30.0172 -98.6581 16° North 432 497 39,000 194 Climbing Houston Center
Fri 02:39:46 PM 30.1453 -98.6158 16° North 442 509 39,000  Level Houston Center
Fri 02:40:49 PM 30.2686 -98.5756 16° North 457 526 39,000  Level Houston Center
Fri 02:41:50 PM 30.3872 -98.5361 16° North 467 537 39,000  Level Houston Center
Fri 02:42:52 PM 30.5167 -98.4950 15° North 476 548 39,000  Level Houston Center
Fri 02:43:54 PM 30.6692 -98.4456 16° North 480 552 39,000  Level Houston Center
Fri 02:44:56 PM 30.7989 -98.4022 16° North 480 552 39,000  Level Houston Center
Fri 02:45:58 PM 30.9292 -98.3597 16° North 480 552 39,000  Level Houston Center
Fri 02:47:02 PM 31.0681 -98.3156 15° North 480 552 39,000  Level Fort Worth Center
Fri 02:48:02 PM 31.1956 -98.2731 16° North 475 547 39,000  Level Fort Worth Center
Fri 02:49:02 PM 31.3275 -98.2306 15° North 475 547 39,000  Level Fort Worth Center
Fri 02:50:02 PM 31.4594 -98.1831 17° North 480 552 39,000  Level Fort Worth Center
Fri 02:51:02 PM 31.5889 -98.1425 15° North 479 551 39,000  Level Fort Worth Center
Fri 02:52:02 PM 31.7186 -98.0972 17° North 479 551 39,000  Level Fort Worth Center
Fri 02:53:02 PM 31.8525 -98.0542 15° North 479 551 39,000  Level Fort Worth Center
Fri 02:54:02 PM 31.9675 -98.0133 17° North 479 551 39,000  Level Fort Worth Center
Fri 02:55:02 PM 32.1119 -97.9628 17° North 478 550 39,000  Level Fort Worth Center
Fri 02:56:02 PM 32.2289 -97.9242 16° North 478 550 39,000  Level Fort Worth Center
Fri 02:57:02 PM 32.3775 -97.8733 16° North 478 550 39,000  Level Fort Worth Center
Fri 02:58:02 PM 32.4944 -97.8347 16° North 484 557 39,000  Level Fort Worth Center
Fri 02:59:02 PM 32.6386 -97.7833 17° North 489 563 39,000  Level Fort Worth Center
Fri 03:00:02 PM 32.7578 -97.7444 15° North 489 563 39,000  Level Fort Worth Center
Fri 03:01:02 PM 32.9039 -97.6931 16° North 489 563 39,000  Level Fort Worth Center
Fri 03:02:02 PM 33.0419 -97.6489 15° North 489 563 39,000  Level Fort Worth Center
Fri 03:03:02 PM 33.1692 -97.6019 17° North 492 566 39,000  Level Fort Worth Center
Fri 03:04:02 PM 33.2842 -97.5600 17° North 486 559 39,000  Level Fort Worth Center
Fri 03:05:02 PM 33.4283 -97.5106 16° North 480 552 39,000  Level Fort Worth Center
Fri 03:06:02 PM 33.5431 -97.4708 16° North 480 552 39,000  Level Fort Worth Center
Fri 03:07:02 PM 33.6869 -97.4233 15° North 475 547 39,000  Level Fort Worth Center
Fri 03:08:02 PM 33.8144 -97.3761 17° North 475 547 39,000  Level Fort Worth Center
Fri 03:09:02 PM 33.9458 -97.3308 16° North 475 547 39,000  Level Fort Worth Center
Fri 03:10:02 PM 34.0731 -97.2856 16° North 475 547 39,000  Level Fort Worth Center
Fri 03:11:02 PM 34.1983 -97.2378 18° North 475 547 39,000  Level Fort Worth Center
Fri 03:12:02 PM 34.3275 -97.1947 15° North 475 547 39,000  Level Fort Worth Center
Fri 03:13:02 PM 34.4569 -97.1467 17° North 475 547 39,000  Level Fort Worth Center
Fri 03:14:02 PM 34.5839 -97.1008 17° North 475 547 39,000  Level Fort Worth Center
Fri 03:15:02 PM 34.7111 -97.0547 17° North 480 552 39,000  Level Fort Worth Center
Fri 03:16:13 PM 34.8425 -97.0061 17° North 480 552 39,000  Level Fort Worth Center
Fri 03:17:14 PM 34.9967 -96.9497 17° North 480 552 39,000  Level Fort Worth Center
Fri 03:19:30 PM 35.2736 -96.8489 17° North 482 555 39,000  Level Kansas City Center
Fri 03:20:32 PM 35.4253 -96.7931 17° North 480 552 39,000  Level Kansas City Center
Fri 03:21:34 PM 35.5525 -96.7464 17° North 480 552 39,000 97 Level Kansas City Center
Fri 03:22:36 PM 35.6800 -96.7000 16° North 480 552 39,200 435 Climbing Kansas City Center
Fri 03:23:38 PM 35.8058 -96.6547 16° North 475 547 39,900 726 Climbing Kansas City Center
Fri 03:24:40 PM 35.9278 -96.6094 17° North 465 535 40,700 532 Climbing Kansas City Center
Fri 03:25:42 PM 36.0683 -96.5569 17° North 453 521 41,000 144 Climbing Kansas City Center
Fri 03:26:45 PM 36.1906 -96.5114 17° North 454 522 41,000  Level Kansas City Center
Fri 03:27:47 PM 36.3139 -96.4656 17° North 457 526 41,000  Level Kansas City Center
Fri 03:28:49 PM 36.4383 -96.4178 17° North 460 529 41,000  Level Kansas City Center
Fri 03:29:51 PM 36.5625 -96.3703 17° North 462 532 41,000  Level Kansas City Center
Fri 03:30:53 PM 36.6864 -96.3236 17° North 463 533 41,000  Level Kansas City Center
Fri 03:31:55 PM 36.8119 -96.2767 17° North 464 534 41,000  Level Kansas City Center
Fri 03:32:57 PM 36.9617 -96.2164 18° North 467 537 41,000  Level Kansas City Center
Fri 03:33:59 PM 37.0869 -96.1686 17° North 469 540 41,000  Level Kansas City Center
Fri 03:35:01 PM 37.2117 -96.1206 17° North 466 536 41,000  Level Kansas City Center
Fri 03:36:03 PM 37.3356 -96.0725 17° North 465 535 41,000  Level Kansas City Center
Fri 03:37:05 PM 37.4606 -96.0222 18° North 467 537 41,000  Level Kansas City Center
Fri 03:38:07 PM 37.5844 -95.9750 17° North 465 535 41,000  Level Kansas City Center
Fri 03:39:09 PM 37.7089 -95.9278 17° North 465 535 41,000  Level Kansas City Center
Fri 03:40:11 PM 37.8572 -95.8714 17° North 463 533 41,000  Level Kansas City Center
Fri 03:41:13 PM 37.9814 -95.8203 18° North 466 536 41,000  Level Kansas City Center
Fri 03:42:15 PM 38.1000 -95.7761 16° North 464 534 41,000  Level Kansas City Center
Fri 03:43:17 PM 38.2364 -95.7219 17° North 461 531 41,000  Level Kansas City Center
Fri 03:44:20 PM 38.3533 -95.6736 18° North 460 529 41,000  Level Kansas City Center
Fri 03:45:22 PM 38.4900 -95.6189 17° North 460 529 41,000  Level Kansas City Center
Fri 03:46:24 PM 38.6058 -95.5722 17° North 456 525 41,000  Level Kansas City Center
Fri 03:47:26 PM 38.7225 -95.5253 17° North 457 526 41,000  Level Kansas City Center
Fri 03:48:28 PM 38.8589 -95.4706 17° North 457 526 41,000  Level Kansas City Center
Fri 03:49:30 PM 38.9750 -95.4222 18° North 458 527 41,000  Level Kansas City Center
Fri 03:50:32 PM 39.1106 -95.3656 18° North 457 526 41,000  Level Kansas City Center
Fri 03:51:34 PM 39.2417 -95.3128 17° North 457 526 41,000  Level Kansas City Center
Fri 03:52:36 PM 39.3644 -95.2631 17° North 460 529 41,000  Level Kansas City Center
Fri 03:53:38 PM 39.4953 -95.2083 18° North 458 527 41,000  Level Kansas City Center
Fri 03:54:40 PM 39.6047 -95.1633 18° North 457 526 41,000  Level Kansas City Center
Fri 03:55:42 PM 39.7406 -95.1078 17° North 458 527 41,000  Level Kansas City Center
Fri 03:56:44 PM 39.8581 -95.0583 18° North 462 532 41,000  Level Kansas City Center
Fri 03:57:46 PM 39.9942 -95.0017 18° North 460 529 41,000  Level Kansas City Center
Fri 03:58:48 PM 40.1111 -94.9531 18° North 459 528 41,000  Level Kansas City Center
Fri 03:59:32 PM 40.2136 -94.9086 18° North 463 533 41,000  Level Minneapolis Center
Fri 04:00:34 PM 40.3358 -94.8569 18° North 463 533 41,000  Level Minneapolis Center
Fri 04:01:36 PM 40.4583 -94.8061 18° North 463 533 41,000  Level Minneapolis Center
Fri 04:02:38 PM 40.5811 -94.7525 18° North 465 535 41,000  Level Minneapolis Center
Fri 04:03:40 PM 40.7031 -94.7014 18° North 463 533 41,000  Level Minneapolis Center
Fri 04:04:42 PM 40.8244 -94.6492 18° North 462 532 41,000  Level Minneapolis Center
Fri 04:05:44 PM 40.9714 -94.5858 18° North 463 533 41,000  Level Minneapolis Center
Fri 04:06:46 PM 41.0828 -94.5375 18° North 464 534 41,000  Level Minneapolis Center
Fri 04:07:48 PM 41.2158 -94.4797 18° North 463 533 41,000 -387 Level Minneapolis Center
Fri 04:08:50 PM 41.3389 -94.4269 18° North 464 534 40,200 -871 Descending Minneapolis Center
Fri 04:09:52 PM 41.4644 -94.3708 19° North 473 544 39,200 -968 Descending Minneapolis Center
Fri 04:10:54 PM 41.5894 -94.3158 18° North 474 545 38,200 -1,065 Descending Minneapolis Center
Fri 04:11:56 PM 41.7358 -94.2522 18° North 463 533 37,000 -1,065 Descending Minneapolis Center
Fri 04:12:58 PM 41.8589 -94.1975 18° North 465 535 36,000 -864 Descending Minneapolis Center
Fri 04:14:01 PM 41.9797 -94.1439 18° North 461 531 35,200 -816 Descending Minneapolis Center
Fri 04:15:03 PM 42.0958 -94.0917 18° North 446 513 34,300 -1,016 Descending Minneapolis Center
Fri 04:16:05 PM 42.2122 -94.0417 18° North 426 490 33,100 -574 Descending Minneapolis Center
Fri 04:17:19 PM 42.3242 -93.9897 19° North 428 493 33,000 -44 Descending Minneapolis Center
Fri 04:18:21 PM 42.4603 -93.9289 18° North 431 496 33,000  Level Minneapolis Center
Fri 04:19:23 PM 42.5939 -93.8667 19° North 424 488 33,000  Level Minneapolis Center
Fri 04:20:25 PM 42.7047 -93.8164 18° North 422 486 33,000  Level Minneapolis Center
Fri 04:21:27 PM 42.8142 -93.7661 19° North 417 480 33,000  Level Minneapolis Center
Fri 04:22:41 PM 42.9228 -93.7156 19° North 415 478 33,000  Level Minneapolis Center
Fri 04:23:44 PM 43.0542 -93.6553 19° North 418 481 33,000 -240 Level Minneapolis Center
Fri 04:24:46 PM 43.1911 -93.5919 19° North 424 488 32,500 -1,161 Descending Minneapolis Center
Fri 04:25:48 PM 43.3000 -93.5494 16° North 421 484 30,600 -2,338 Descending Minneapolis Center
Fri 04:27:02 PM 43.4133 -93.5392 North 413 475 27,200 -3,328 Descending Minneapolis Center
Fri 04:28:05 PM 43.5481 -93.5283 North 401 461 23,000 -3,648 Descending Minneapolis Center
Fri 04:29:07 PM 43.6556 -93.5183 North 390 449 19,600 -3,242 Descending Minneapolis Center
Fri 04:30:09 PM 43.7775 -93.5072 North 371 427 16,300 -2,661 Descending Minneapolis Center
Fri 04:31:11 PM 43.8753 -93.4972 North 357 411 14,100 -1,403 Descending Minneapolis Center
Fri 04:32:13 PM 43.9711 -93.4881 North 346 398 13,400 -1,016 Descending Minneapolis Center
Fri 04:33:15 PM 44.0736 -93.4781 North 367 422 12,000 -1,839 Descending Minneapolis Center
Fri 04:34:17 PM 44.1683 -93.4689 North 333 383 9,600 -1,935 Descending Minneapolis Center
Fri 04:35:19 PM 44.2517 -93.4617 North 299 344 8,000 -1,161 Descending Minneapolis Center
Fri 04:36:21 PM 44.3425 -93.4592 North 276 318 7,200 -919 Descending Minneapolis Center
Fri 04:37:23 PM 44.4189 -93.4561 North 274 315 6,100 -1,065 Descending Minneapolis Center
Fri 04:38:25 PM 44.4944 -93.4544 North 272 313 5,000 -1,059 Descending Minneapolis Center
Fri 04:39:39 PM 44.5689 -93.4522 North 268 308 3,700 -1,103 Descending Minneapolis Center
Fri 04:40:41 PM 44.6397 -93.4492 North 254 292 2,500 -576 Descending Minneapolis Center
Fri 04:41:44 PM 44.7172 -93.4475 North 232 267 2,500 -48 Level Minneapolis Center
Fri 04:42:46 PM 44.7869 -93.4656 350° North 212 244 2,400 -435 Descending Minneapolis Center
Fri 04:43:48 PM 44.8131 -93.5114 309° West 157 181 1,600 -726 Descending Minneapolis Center
Fri 04:44:50 PM 44.8294 -93.4708 60° Northeast 144 166 900 -677 Descending Minneapolis Center
Fri 04:46:00 PM 44.8275 -93.4586 270° West  Level Estimated
Fri 04:53:00 PM 44.8275 -93.4586 270° West  Level Estimated

Login

Don't have an account? Register now (free) for customized features, flight alerts, and more!